createdAt,value
2022-07-25T06:54:00.958Z,8.80
2022-07-25T07:00:58.536Z,9.93
2022-07-25T07:03:27.232Z,10.48
2022-07-25T07:05:57.315Z,9.95
2022-07-25T07:08:25.841Z,10.15
2022-07-25T07:10:57.648Z,10.23
2022-07-25T07:13:26.593Z,10.38
2022-07-25T07:15:56.061Z,10.32
2022-07-25T07:18:26.572Z,10.07
2022-07-25T07:20:55.493Z,9.80
2022-07-25T07:24:03.440Z,9.55
2022-07-25T07:26:52.274Z,10.50
2022-07-25T07:29:24.092Z,9.85
2022-07-25T07:31:52.831Z,9.85
2022-07-25T07:34:22.774Z,9.65
2022-07-25T07:36:51.751Z,9.77
2022-07-25T07:45:35.785Z,8.90
2022-07-25T07:48:04.260Z,10.63
2022-07-25T07:50:32.810Z,8.77
2022-07-25T07:53:01.345Z,9.35
2022-07-25T07:55:45.225Z,9.27
2022-07-25T07:58:15.551Z,8.75
2022-07-25T08:00:47.473Z,9.38
2022-07-25T08:03:20.695Z,9.90
2022-07-25T08:05:51.673Z,10.27
2022-07-25T08:08:21.496Z,8.73
2022-07-25T08:10:55.637Z,9.48
2022-07-25T08:13:27.726Z,8.48
2022-07-25T08:16:01.177Z,8.93
2022-07-25T08:18:30.760Z,8.73
2022-07-25T08:21:02.923Z,8.70
2022-07-25T08:23:34.877Z,9.20
2022-07-25T08:26:04.052Z,9.32
2022-07-25T08:28:34.043Z,9.05
2022-07-25T08:31:04.668Z,8.50
2022-07-25T08:33:33.572Z,9.40
2022-07-25T08:36:05.673Z,10.02
2022-07-25T08:38:35.351Z,8.70
2022-07-25T08:41:05.027Z,9.63
2022-07-25T08:43:34.949Z,9.55
2022-07-25T08:46:09.159Z,8.93
2022-07-25T08:48:39.338Z,9.60
2022-07-25T08:51:09.352Z,9.43
2022-07-25T08:53:38.187Z,9.40
2022-07-25T08:56:12.584Z,8.40
2022-07-25T08:58:44.691Z,9.15
2022-07-25T09:01:15.928Z,8.88
2022-07-25T09:03:44.895Z,9.55
2022-07-25T09:06:20.225Z,9.32
2022-07-25T09:08:53.197Z,8.23
2022-07-25T09:11:30.607Z,8.10
2022-07-25T09:14:01.766Z,7.32
2022-07-25T09:16:32.755Z,7.78
2022-07-25T09:19:10.652Z,7.88
2022-07-25T09:21:40.888Z,7.30
2022-07-25T09:24:11.856Z,7.03
2022-07-25T09:26:51.347Z,7.28
2022-07-25T09:29:44.800Z,6.35
2022-07-25T09:32:19.507Z,7.38
2022-07-25T09:34:49.988Z,6.78
2022-07-25T09:37:19.229Z,7.22
2022-07-25T09:39:48.643Z,7.18
2022-07-25T09:42:22.718Z,7.32
2022-07-25T09:55:18.924Z,6.72
2022-07-25T09:57:49.067Z,6.25
2022-07-25T10:08:39.571Z,5.47
2022-07-25T10:14:18.101Z,6.00
2022-07-25T10:16:47.485Z,6.25
2022-07-25T10:19:16.095Z,5.85
2022-07-25T10:21:58.548Z,5.20
2022-07-25T10:24:34.375Z,5.55
2022-07-25T10:27:09.666Z,5.00
2022-07-25T10:29:42.171Z,5.97
2022-07-25T10:32:12.252Z,6.45
2022-07-25T10:34:41.877Z,4.55
2022-07-25T10:37:12.332Z,5.00
2022-07-25T10:39:42.321Z,9.75
2022-07-25T10:42:14.443Z,7.32
2022-07-25T10:44:45.476Z,4.57
2022-07-25T10:47:15.332Z,5.38
2022-07-25T10:50:13.417Z,4.70
2022-07-25T10:52:33.521Z,7.03
2022-07-25T10:55:30.915Z,3.78
2022-07-25T10:58:18.926Z,4.15
2022-07-25T11:00:51.136Z,5.22
2022-07-25T11:03:20.279Z,4.53
2022-07-25T11:05:49.586Z,3.88
2022-07-25T11:08:22.601Z,3.70
2022-07-25T11:10:53.559Z,6.78
2022-07-25T11:13:22.565Z,4.07
2022-07-25T11:15:52.503Z,4.05
2022-07-25T11:18:21.050Z,3.95
2022-07-25T11:21:03.007Z,3.75
2022-07-25T11:23:35.342Z,4.00
2022-07-25T11:26:10.881Z,3.92
2022-07-25T11:28:43.124Z,4.50
2022-07-25T11:31:14.555Z,4.63
2022-07-25T11:33:44.137Z,5.57
2022-07-25T11:36:13.126Z,6.65
2022-07-25T11:38:42.716Z,4.20
2022-07-25T11:41:11.351Z,4.22
2022-07-25T11:43:39.906Z,3.70
2022-07-25T11:46:08.994Z,3.47
2022-07-25T11:48:40.519Z,4.78
2022-07-25T11:51:18.125Z,4.22
2022-07-25T11:53:48.350Z,3.10
2022-07-25T11:56:42.580Z,3.65
2022-07-25T11:59:07.741Z,3.78
